sensor_id;sensor_type;location;lat;lon;timestamp;P1;durP1;ratioP1;P2;durP2;ratioP2
45316;SDS011;31053;55.870;37.592;2022-08-14T00:01:37;12.13;;;7.03;;
45316;SDS011;31053;55.870;37.592;2022-08-14T00:04:42;14.52;;;8.93;;
45316;SDS011;31053;55.870;37.592;2022-08-14T00:07:47;13.57;;;6.85;;
45316;SDS011;31053;55.870;37.592;2022-08-14T00:10:52;14.90;;;7.38;;
45316;SDS011;31053;55.870;37.592;2022-08-14T00:13:58;17.10;;;7.93;;
45316;SDS011;31053;55.870;37.592;2022-08-14T00:17:04;14.23;;;7.05;;
45316;SDS011;31053;55.870;37.592;2022-08-14T00:20:09;12.90;;;6.50;;
45316;SDS011;31053;55.870;37.592;2022-08-14T00:23:15;11.88;;;6.38;;
45316;SDS011;31053;55.870;37.592;2022-08-14T00:26:21;12.15;;;5.68;;
45316;SDS011;31053;55.870;37.592;2022-08-14T00:29:28;15.05;;;6.03;;
45316;SDS011;31053;55.870;37.592;2022-08-14T00:32:33;12.40;;;6.67;;
45316;SDS011;31053;55.870;37.592;2022-08-14T00:35:38;9.48;;;5.78;;
45316;SDS011;31053;55.870;37.592;2022-08-14T00:38:43;12.80;;;6.45;;
45316;SDS011;31053;55.870;37.592;2022-08-14T00:41:47;13.90;;;8.07;;
45316;SDS011;31053;55.870;37.592;2022-08-14T00:44:52;13.95;;;6.97;;
45316;SDS011;31053;55.870;37.592;2022-08-14T00:47:56;12.50;;;6.80;;
45316;SDS011;31053;55.870;37.592;2022-08-14T00:51:01;11.27;;;6.10;;
45316;SDS011;31053;55.870;37.592;2022-08-14T00:54:06;15.65;;;6.38;;
45316;SDS011;31053;55.870;37.592;2022-08-14T00:57:11;17.52;;;6.10;;
45316;SDS011;31053;55.870;37.592;2022-08-14T01:00:16;16.10;;;7.40;;
45316;SDS011;31053;55.870;37.592;2022-08-14T01:03:21;10.30;;;6.75;;
45316;SDS011;31053;55.870;37.592;2022-08-14T01:06:26;12.43;;;6.57;;
45316;SDS011;31053;55.870;37.592;2022-08-14T01:09:31;17.20;;;7.05;;
45316;SDS011;31053;55.870;37.592;2022-08-14T01:12:36;13.90;;;6.80;;
45316;SDS011;31053;55.870;37.592;2022-08-14T01:15:45;18.33;;;7.25;;
45316;SDS011;31053;55.870;37.592;2022-08-14T01:18:50;11.53;;;5.63;;
45316;SDS011;31053;55.870;37.592;2022-08-14T01:22:15;12.40;;;6.00;;
45316;SDS011;31053;55.870;37.592;2022-08-14T01:25:21;15.23;;;6.88;;
45316;SDS011;31053;55.870;37.592;2022-08-14T01:28:26;10.27;;;5.25;;
45316;SDS011;31053;55.870;37.592;2022-08-14T01:31:33;14.38;;;6.85;;
45316;SDS011;31053;55.870;37.592;2022-08-14T01:35:07;17.63;;;8.23;;
45316;SDS011;31053;55.870;37.592;2022-08-14T01:38:12;10.65;;;7.10;;
45316;SDS011;31053;55.870;37.592;2022-08-14T01:41:19;14.02;;;7.93;;
45316;SDS011;31053;55.870;37.592;2022-08-14T01:44:26;19.77;;;8.48;;
45316;SDS011;31053;55.870;37.592;2022-08-14T01:47:32;16.25;;;6.55;;
45316;SDS011;31053;55.870;37.592;2022-08-14T01:50:37;14.57;;;7.35;;
45316;SDS011;31053;55.870;37.592;2022-08-14T01:53:43;16.02;;;7.53;;
45316;SDS011;31053;55.870;37.592;2022-08-14T01:56:51;15.10;;;7.25;;
45316;SDS011;31053;55.870;37.592;2022-08-14T01:59:59;12.10;;;7.25;;
45316;SDS011;31053;55.870;37.592;2022-08-14T02:03:03;10.70;;;5.93;;
45316;SDS011;31053;55.870;37.592;2022-08-14T02:06:08;15.55;;;7.35;;
45316;SDS011;31053;55.870;37.592;2022-08-14T02:09:14;13.77;;;6.53;;
45316;SDS011;31053;55.870;37.592;2022-08-14T02:12:20;16.08;;;7.05;;
45316;SDS011;31053;55.870;37.592;2022-08-14T02:15:58;9.32;;;6.07;;
45316;SDS011;31053;55.870;37.592;2022-08-14T02:19:06;17.45;;;9.52;;
45316;SDS011;31053;55.870;37.592;2022-08-14T02:22:12;14.90;;;6.47;;
45316;SDS011;31053;55.870;37.592;2022-08-14T02:25:17;22.38;;;7.88;;
45316;SDS011;31053;55.870;37.592;2022-08-14T02:28:22;13.77;;;6.05;;
45316;SDS011;31053;55.870;37.592;2022-08-14T02:31:58;10.07;;;5.93;;
45316;SDS011;31053;55.870;37.592;2022-08-14T02:35:04;20.38;;;7.07;;
45316;SDS011;31053;55.870;37.592;2022-08-14T02:38:14;9.52;;;5.82;;
45316;SDS011;31053;55.870;37.592;2022-08-14T02:41:19;11.73;;;6.45;;
45316;SDS011;31053;55.870;37.592;2022-08-14T02:44:24;15.40;;;6.15;;
45316;SDS011;31053;55.870;37.592;2022-08-14T02:47:29;9.32;;;4.88;;
45316;SDS011;31053;55.870;37.592;2022-08-14T02:50:34;12.35;;;6.18;;
45316;SDS011;31053;55.870;37.592;2022-08-14T02:53:42;9.23;;;5.40;;
45316;SDS011;31053;55.870;37.592;2022-08-14T02:56:49;11.50;;;5.40;;
45316;SDS011;31053;55.870;37.592;2022-08-14T02:59:54;11.88;;;6.07;;
45316;SDS011;31053;55.870;37.592;2022-08-14T03:02:59;11.93;;;6.45;;
45316;SDS011;31053;55.870;37.592;2022-08-14T03:06:06;13.80;;;5.88;;
45316;SDS011;31053;55.870;37.592;2022-08-14T03:09:12;15.77;;;6.38;;
45316;SDS011;31053;55.870;37.592;2022-08-14T03:12:16;12.63;;;6.75;;
45316;SDS011;31053;55.870;37.592;2022-08-14T03:15:20;15.05;;;6.60;;
45316;SDS011;31053;55.870;37.592;2022-08-14T03:18:26;13.60;;;6.28;;
45316;SDS011;31053;55.870;37.592;2022-08-14T03:21:31;17.10;;;7.28;;
45316;SDS011;31053;55.870;37.592;2022-08-14T03:24:36;11.40;;;7.03;;
45316;SDS011;31053;55.870;37.592;2022-08-14T03:27:41;16.67;;;7.57;;
45316;SDS011;31053;55.870;37.592;2022-08-14T03:30:46;17.95;;;7.40;;
45316;SDS011;31053;55.870;37.592;2022-08-14T03:33:50;12.27;;;6.90;;
45316;SDS011;31053;55.870;37.592;2022-08-14T03:36:54;16.77;;;7.57;;
45316;SDS011;31053;55.870;37.592;2022-08-14T03:40:00;14.48;;;7.25;;
45316;SDS011;31053;55.870;37.592;2022-08-14T03:43:08;15.75;;;8.07;;
45316;SDS011;31053;55.870;37.592;2022-08-14T03:46:13;15.77;;;8.32;;
45316;SDS011;31053;55.870;37.592;2022-08-14T03:49:20;14.98;;;7.35;;
45316;SDS011;31053;55.870;37.592;2022-08-14T03:52:27;16.80;;;7.05;;
45316;SDS011;31053;55.870;37.592;2022-08-14T03:55:31;12.88;;;7.32;;
45316;SDS011;31053;55.870;37.592;2022-08-14T03:58:43;16.52;;;10.18;;
45316;SDS011;31053;55.870;37.592;2022-08-14T04:01:50;14.52;;;7.57;;
45316;SDS011;31053;55.870;37.592;2022-08-14T04:04:55;19.17;;;9.37;;
45316;SDS011;31053;55.870;37.592;2022-08-14T04:08:00;15.80;;;9.48;;
45316;SDS011;31053;55.870;37.592;2022-08-14T04:11:05;12.63;;;7.55;;
45316;SDS011;31053;55.870;37.592;2022-08-14T04:14:10;18.00;;;9.60;;
45316;SDS011;31053;55.870;37.592;2022-08-14T04:20:24;10.35;;;5.93;;
45316;SDS011;31053;55.870;37.592;2022-08-14T04:23:28;10.52;;;6.30;;
45316;SDS011;31053;55.870;37.592;2022-08-14T04:26:33;9.55;;;6.68;;
45316;SDS011;31053;55.870;37.592;2022-08-14T04:29:41;13.02;;;5.20;;
45316;SDS011;31053;55.870;37.592;2022-08-14T04:32:46;10.13;;;6.00;;
45316;SDS011;31053;55.870;37.592;2022-08-14T04:35:51;10.23;;;6.47;;
45316;SDS011;31053;55.870;37.592;2022-08-14T04:38:56;8.05;;;5.60;;
45316;SDS011;31053;55.870;37.592;2022-08-14T04:42:20;13.35;;;5.72;;
45316;SDS011;31053;55.870;37.592;2022-08-14T04:45:43;11.60;;;6.35;;
45316;SDS011;31053;55.870;37.592;2022-08-14T04:48:48;10.60;;;4.82;;
45316;SDS011;31053;55.870;37.592;2022-08-14T04:51:54;11.48;;;8.35;;
45316;SDS011;31053;55.870;37.592;2022-08-14T04:54:59;8.73;;;7.18;;
45316;SDS011;31053;55.870;37.592;2022-08-14T04:58:07;13.40;;;5.78;;
45316;SDS011;31053;55.870;37.592;2022-08-14T05:01:13;6.70;;;4.72;;
45316;SDS011;31053;55.870;37.592;2022-08-14T05:04:19;14.40;;;6.37;;
45316;SDS011;31053;55.870;37.592;2022-08-14T05:07:24;11.90;;;5.40;;
45316;SDS011;31053;55.870;37.592;2022-08-14T05:10:29;15.65;;;9.02;;
45316;SDS011;31053;55.870;37.592;2022-08-14T05:13:34;9.65;;;6.22;;
45316;SDS011;31053;55.870;37.592;2022-08-14T05:16:39;10.02;;;6.18;;
45316;SDS011;31053;55.870;37.592;2022-08-14T05:19:44;8.88;;;4.22;;
45316;SDS011;31053;55.870;37.592;2022-08-14T05:22:48;6.65;;;3.85;;
45316;SDS011;31053;55.870;37.592;2022-08-14T05:25:54;10.93;;;5.28;;
45316;SDS011;31053;55.870;37.592;2022-08-14T05:29:06;9.43;;;6.32;;
45316;SDS011;31053;55.870;37.592;2022-08-14T05:32:12;10.25;;;4.55;;
45316;SDS011;31053;55.870;37.592;2022-08-14T05:35:18;7.13;;;4.95;;
45316;SDS011;31053;55.870;37.592;2022-08-14T05:38:23;10.43;;;5.22;;
45316;SDS011;31053;55.870;37.592;2022-08-14T05:41:28;7.05;;;4.07;;
45316;SDS011;31053;55.870;37.592;2022-08-14T05:44:33;10.50;;;6.10;;
45316;SDS011;31053;55.870;37.592;2022-08-14T05:47:38;9.15;;;4.20;;
45316;SDS011;31053;55.870;37.592;2022-08-14T05:50:44;4.03;;;2.95;;
45316;SDS011;31053;55.870;37.592;2022-08-14T05:53:48;7.88;;;3.25;;
45316;SDS011;31053;55.870;37.592;2022-08-14T05:56:53;6.90;;;3.70;;
45316;SDS011;31053;55.870;37.592;2022-08-14T05:59:57;8.77;;;4.32;;
45316;SDS011;31053;55.870;37.592;2022-08-14T06:03:03;7.70;;;3.60;;
45316;SDS011;31053;55.870;37.592;2022-08-14T06:06:09;13.50;;;4.50;;
45316;SDS011;31053;55.870;37.592;2022-08-14T06:09:13;6.40;;;3.30;;
45316;SDS011;31053;55.870;37.592;2022-08-14T06:12:18;14.07;;;3.70;;
45316;SDS011;31053;55.870;37.592;2022-08-14T06:15:22;14.07;;;3.95;;
45316;SDS011;31053;55.870;37.592;2022-08-14T06:18:29;7.30;;;3.85;;
45316;SDS011;31053;55.870;37.592;2022-08-14T06:21:33;3.53;;;2.78;;
45316;SDS011;31053;55.870;37.592;2022-08-14T06:24:38;5.68;;;2.65;;
45316;SDS011;31053;55.870;37.592;2022-08-14T06:27:43;6.78;;;3.17;;
45316;SDS011;31053;55.870;37.592;2022-08-14T06:30:49;7.90;;;3.10;;
45316;SDS011;31053;55.870;37.592;2022-08-14T06:33:54;3.17;;;1.98;;
45316;SDS011;31053;55.870;37.592;2022-08-14T06:36:59;3.55;;;2.45;;
45316;SDS011;31053;55.870;37.592;2022-08-14T06:40:04;2.58;;;1.52;;
45316;SDS011;31053;55.870;37.592;2022-08-14T06:43:10;1.95;;;1.50;;
45316;SDS011;31053;55.870;37.592;2022-08-14T06:46:15;7.53;;;1.40;;
45316;SDS011;31053;55.870;37.592;2022-08-14T06:49:20;4.55;;;1.50;;
45316;SDS011;31053;55.870;37.592;2022-08-14T06:52:24;7.47;;;1.65;;
45316;SDS011;31053;55.870;37.592;2022-08-14T06:55:29;2.88;;;1.83;;
45316;SDS011;31053;55.870;37.592;2022-08-14T06:58:33;6.63;;;1.98;;
45316;SDS011;31053;55.870;37.592;2022-08-14T07:01:38;7.90;;;2.40;;
45316;SDS011;31053;55.870;37.592;2022-08-14T07:05:01;5.40;;;2.10;;
45316;SDS011;31053;55.870;37.592;2022-08-14T07:08:28;2.55;;;1.55;;
45316;SDS011;31053;55.870;37.592;2022-08-14T07:11:33;8.18;;;2.00;;
45316;SDS011;31053;55.870;37.592;2022-08-14T07:14:38;3.75;;;1.80;;
45316;SDS011;31053;55.870;37.592;2022-08-14T07:17:44;7.80;;;1.80;;
45316;SDS011;31053;55.870;37.592;2022-08-14T07:20:49;3.83;;;1.63;;
45316;SDS011;31053;55.870;37.592;2022-08-14T07:23:54;4.20;;;2.05;;
45316;SDS011;31053;55.870;37.592;2022-08-14T07:26:58;7.03;;;2.38;;
45316;SDS011;31053;55.870;37.592;2022-08-14T07:30:03;6.47;;;2.50;;
45316;SDS011;31053;55.870;37.592;2022-08-14T07:33:08;3.38;;;1.90;;
45316;SDS011;31053;55.870;37.592;2022-08-14T07:36:15;3.07;;;1.70;;
45316;SDS011;31053;55.870;37.592;2022-08-14T07:39:19;5.03;;;1.40;;
45316;SDS011;31053;55.870;37.592;2022-08-14T07:42:23;4.28;;;2.22;;
45316;SDS011;31053;55.870;37.592;2022-08-14T07:45:28;4.55;;;1.50;;
45316;SDS011;31053;55.870;37.592;2022-08-14T07:48:36;2.67;;;1.63;;
45316;SDS011;31053;55.870;37.592;2022-08-14T07:51:42;5.70;;;1.85;;
45316;SDS011;31053;55.870;37.592;2022-08-14T07:54:47;2.22;;;1.73;;
45316;SDS011;31053;55.870;37.592;2022-08-14T07:57:52;3.60;;;1.38;;
45316;SDS011;31053;55.870;37.592;2022-08-14T08:00:57;3.72;;;1.48;;
45316;SDS011;31053;55.870;37.592;2022-08-14T08:04:02;2.97;;;1.48;;
45316;SDS011;31053;55.870;37.592;2022-08-14T08:07:07;2.70;;;1.60;;
45316;SDS011;31053;55.870;37.592;2022-08-14T08:10:22;7.43;;;1.90;;
45316;SDS011;31053;55.870;37.592;2022-08-14T08:13:34;2.13;;;1.40;;
45316;SDS011;31053;55.870;37.592;2022-08-14T08:16:45;4.55;;;1.27;;
45316;SDS011;31053;55.870;37.592;2022-08-14T08:19:50;2.47;;;1.33;;
45316;SDS011;31053;55.870;37.592;2022-08-14T08:22:55;3.60;;;1.65;;
45316;SDS011;31053;55.870;37.592;2022-08-14T08:26:09;2.50;;;1.15;;
45316;SDS011;31053;55.870;37.592;2022-08-14T08:29:21;6.25;;;1.23;;
45316;SDS011;31053;55.870;37.592;2022-08-14T08:32:27;6.57;;;1.65;;
45316;SDS011;31053;55.870;37.592;2022-08-14T08:35:33;2.75;;;1.88;;
45316;SDS011;31053;55.870;37.592;2022-08-14T08:38:38;6.30;;;2.63;;
45316;SDS011;31053;55.870;37.592;2022-08-14T08:41:46;4.20;;;1.70;;
45316;SDS011;31053;55.870;37.592;2022-08-14T08:44:54;6.13;;;1.58;;
45316;SDS011;31053;55.870;37.592;2022-08-14T08:48:00;2.70;;;1.75;;
45316;SDS011;31053;55.870;37.592;2022-08-14T08:51:06;4.85;;;1.35;;
45316;SDS011;31053;55.870;37.592;2022-08-14T08:54:12;7.22;;;2.65;;
45316;SDS011;31053;55.870;37.592;2022-08-14T08:57:19;4.43;;;1.60;;
45316;SDS011;31053;55.870;37.592;2022-08-14T09:00:25;6.45;;;2.03;;
45316;SDS011;31053;55.870;37.592;2022-08-14T09:03:37;2.83;;;1.33;;
45316;SDS011;31053;55.870;37.592;2022-08-14T09:06:43;5.60;;;1.45;;
45316;SDS011;31053;55.870;37.592;2022-08-14T09:09:52;1.88;;;1.40;;
45316;SDS011;31053;55.870;37.592;2022-08-14T09:12:59;5.05;;;1.63;;
45316;SDS011;31053;55.870;37.592;2022-08-14T09:16:07;5.15;;;3.35;;
45316;SDS011;31053;55.870;37.592;2022-08-14T09:22:31;3.28;;;1.95;;
45316;SDS011;31053;55.870;37.592;2022-08-14T09:25:35;2.85;;;1.60;;
45316;SDS011;31053;55.870;37.592;2022-08-14T09:28:41;2.40;;;1.35;;
45316;SDS011;31053;55.870;37.592;2022-08-14T09:31:47;9.68;;;2.00;;
45316;SDS011;31053;55.870;37.592;2022-08-14T09:35:06;4.22;;;2.05;;
45316;SDS011;31053;55.870;37.592;2022-08-14T09:38:21;2.33;;;1.67;;
45316;SDS011;31053;55.870;37.592;2022-08-14T09:45:14;2.75;;;1.73;;
45316;SDS011;31053;55.870;37.592;2022-08-14T09:48:21;3.25;;;2.13;;
45316;SDS011;31053;55.870;37.592;2022-08-14T09:51:27;2.20;;;1.25;;
45316;SDS011;31053;55.870;37.592;2022-08-14T09:54:40;2.05;;;1.30;;
45316;SDS011;31053;55.870;37.592;2022-08-14T09:57:49;2.53;;;1.27;;
45316;SDS011;31053;55.870;37.592;2022-08-14T10:00:55;5.18;;;1.98;;
45316;SDS011;31053;55.870;37.592;2022-08-14T10:04:05;4.38;;;1.35;;
45316;SDS011;31053;55.870;37.592;2022-08-14T10:07:28;3.45;;;1.70;;
45316;SDS011;31053;55.870;37.592;2022-08-14T10:13:43;5.53;;;1.83;;
45316;SDS011;31053;55.870;37.592;2022-08-14T10:16:53;2.50;;;1.80;;
45316;SDS011;31053;55.870;37.592;2022-08-14T10:19:59;4.78;;;1.58;;
45316;SDS011;31053;55.870;37.592;2022-08-14T10:26:16;3.47;;;1.77;;
45316;SDS011;31053;55.870;37.592;2022-08-14T10:29:32;5.07;;;1.73;;
45316;SDS011;31053;55.870;37.592;2022-08-14T10:32:46;3.28;;;1.65;;
45316;SDS011;31053;55.870;37.592;2022-08-14T10:35:51;3.03;;;1.55;;
45316;SDS011;31053;55.870;37.592;2022-08-14T10:38:56;7.28;;;1.92;;
45316;SDS011;31053;55.870;37.592;2022-08-14T10:45:21;4.93;;;1.60;;
45316;SDS011;31053;55.870;37.592;2022-08-14T10:48:27;13.02;;;2.33;;
45316;SDS011;31053;55.870;37.592;2022-08-14T10:51:32;6.97;;;2.10;;
45316;SDS011;31053;55.870;37.592;2022-08-14T10:54:40;3.40;;;2.15;;
45316;SDS011;31053;55.870;37.592;2022-08-14T10:57:54;1.83;;;1.52;;
45316;SDS011;31053;55.870;37.592;2022-08-14T11:01:02;2.50;;;1.80;;
45316;SDS011;31053;55.870;37.592;2022-08-14T11:04:23;6.55;;;2.20;;
45316;SDS011;31053;55.870;37.592;2022-08-14T11:07:31;6.28;;;2.20;;
45316;SDS011;31053;55.870;37.592;2022-08-14T11:10:48;6.68;;;2.60;;
45316;SDS011;31053;55.870;37.592;2022-08-14T11:13:58;4.95;;;1.98;;
45316;SDS011;31053;55.870;37.592;2022-08-14T11:17:03;3.88;;;1.77;;
45316;SDS011;31053;55.870;37.592;2022-08-14T11:20:08;3.58;;;2.13;;
45316;SDS011;31053;55.870;37.592;2022-08-14T11:23:13;1.85;;;1.45;;
45316;SDS011;31053;55.870;37.592;2022-08-14T11:26:18;2.55;;;1.48;;
45316;SDS011;31053;55.870;37.592;2022-08-14T11:29:22;4.18;;;1.48;;
45316;SDS011;31053;55.870;37.592;2022-08-14T11:32:28;2.53;;;1.20;;
45316;SDS011;31053;55.870;37.592;2022-08-14T11:35:34;3.28;;;1.42;;
45316;SDS011;31053;55.870;37.592;2022-08-14T11:38:41;2.00;;;1.20;;
45316;SDS011;31053;55.870;37.592;2022-08-14T11:41:48;3.97;;;2.28;;
45316;SDS011;31053;55.870;37.592;2022-08-14T11:44:57;2.47;;;1.77;;
45316;SDS011;31053;55.870;37.592;2022-08-14T11:48:14;5.18;;;1.80;;
45316;SDS011;31053;55.870;37.592;2022-08-14T11:51:21;2.28;;;1.67;;
45316;SDS011;31053;55.870;37.592;2022-08-14T11:54:29;4.60;;;1.40;;
45316;SDS011;31053;55.870;37.592;2022-08-14T11:57:34;11.15;;;3.83;;
45316;SDS011;31053;55.870;37.592;2022-08-14T12:00:48;6.53;;;2.33;;
45316;SDS011;31053;55.870;37.592;2022-08-14T12:03:53;2.17;;;1.60;;
45316;SDS011;31053;55.870;37.592;2022-08-14T12:07:01;3.08;;;1.83;;
45316;SDS011;31053;55.870;37.592;2022-08-14T12:10:10;4.07;;;1.92;;
45316;SDS011;31053;55.870;37.592;2022-08-14T12:13:15;6.15;;;2.20;;
45316;SDS011;31053;55.870;37.592;2022-08-14T12:16:21;3.05;;;1.90;;
45316;SDS011;31053;55.870;37.592;2022-08-14T12:19:30;2.88;;;1.73;;
45316;SDS011;31053;55.870;37.592;2022-08-14T12:22:39;7.90;;;2.70;;
45316;SDS011;31053;55.870;37.592;2022-08-14T12:25:49;3.38;;;1.63;;
45316;SDS011;31053;55.870;37.592;2022-08-14T12:29:11;5.38;;;1.35;;
45316;SDS011;31053;55.870;37.592;2022-08-14T12:32:19;9.48;;;2.03;;
45316;SDS011;31053;55.870;37.592;2022-08-14T12:38:46;4.90;;;1.70;;
45316;SDS011;31053;55.870;37.592;2022-08-14T12:41:54;9.77;;;2.03;;
45316;SDS011;31053;55.870;37.592;2022-08-14T12:45:27;4.57;;;1.70;;
45316;SDS011;31053;55.870;37.592;2022-08-14T12:48:50;4.35;;;1.85;;
45316;SDS011;31053;55.870;37.592;2022-08-14T12:51:56;10.55;;;3.72;;
45316;SDS011;31053;55.870;37.592;2022-08-14T12:55:14;4.05;;;2.38;;
45316;SDS011;31053;55.870;37.592;2022-08-14T12:58:27;3.30;;;1.83;;
45316;SDS011;31053;55.870;37.592;2022-08-14T13:04:38;6.70;;;2.22;;
45316;SDS011;31053;55.870;37.592;2022-08-14T13:07:52;9.68;;;2.70;;
45316;SDS011;31053;55.870;37.592;2022-08-14T13:11:01;6.82;;;3.22;;
45316;SDS011;31053;55.870;37.592;2022-08-14T13:14:10;6.85;;;2.20;;
45316;SDS011;31053;55.870;37.592;2022-08-14T13:17:20;3.00;;;1.50;;
45316;SDS011;31053;55.870;37.592;2022-08-14T13:20:26;7.57;;;1.73;;
45316;SDS011;31053;55.870;37.592;2022-08-14T13:23:36;6.43;;;1.83;;
45316;SDS011;31053;55.870;37.592;2022-08-14T13:26:50;3.42;;;1.42;;
45316;SDS011;31053;55.870;37.592;2022-08-14T13:29:58;4.78;;;2.40;;
45316;SDS011;31053;55.870;37.592;2022-08-14T13:33:07;6.60;;;2.03;;
45316;SDS011;31053;55.870;37.592;2022-08-14T13:36:14;6.28;;;2.50;;
45316;SDS011;31053;55.870;37.592;2022-08-14T13:39:22;6.82;;;2.45;;
45316;SDS011;31053;55.870;37.592;2022-08-14T13:42:28;8.65;;;2.63;;
45316;SDS011;31053;55.870;37.592;2022-08-14T13:45:33;6.35;;;2.13;;
45316;SDS011;31053;55.870;37.592;2022-08-14T13:48:39;4.65;;;2.92;;
45316;SDS011;31053;55.870;37.592;2022-08-14T13:51:47;5.40;;;1.88;;
45316;SDS011;31053;55.870;37.592;2022-08-14T13:54:56;7.05;;;2.25;;
45316;SDS011;31053;55.870;37.592;2022-08-14T13:58:02;5.45;;;1.92;;
45316;SDS011;31053;55.870;37.592;2022-08-14T14:01:06;6.22;;;2.50;;
45316;SDS011;31053;55.870;37.592;2022-08-14T14:04:14;3.90;;;1.90;;
45316;SDS011;31053;55.870;37.592;2022-08-14T14:07:19;7.75;;;3.10;;
45316;SDS011;31053;55.870;37.592;2022-08-14T14:10:26;6.65;;;3.65;;
45316;SDS011;31053;55.870;37.592;2022-08-14T14:13:31;5.93;;;2.47;;
45316;SDS011;31053;55.870;37.592;2022-08-14T14:16:37;5.00;;;2.67;;
45316;SDS011;31053;55.870;37.592;2022-08-14T14:19:43;5.50;;;3.13;;
45316;SDS011;31053;55.870;37.592;2022-08-14T14:22:50;6.43;;;3.05;;
45316;SDS011;31053;55.870;37.592;2022-08-14T14:25:56;6.45;;;3.00;;
45316;SDS011;31053;55.870;37.592;2022-08-14T14:29:02;8.90;;;2.80;;
45316;SDS011;31053;55.870;37.592;2022-08-14T14:32:09;5.28;;;2.72;;
45316;SDS011;31053;55.870;37.592;2022-08-14T14:35:15;7.55;;;3.13;;
45316;SDS011;31053;55.870;37.592;2022-08-14T14:38:24;6.38;;;1.95;;
45316;SDS011;31053;55.870;37.592;2022-08-14T14:41:32;3.95;;;2.35;;
45316;SDS011;31053;55.870;37.592;2022-08-14T14:44:44;6.65;;;4.28;;
45316;SDS011;31053;55.870;37.592;2022-08-14T14:48:00;4.55;;;3.08;;
45316;SDS011;31053;55.870;37.592;2022-08-14T14:51:06;12.65;;;4.38;;
45316;SDS011;31053;55.870;37.592;2022-08-14T14:54:10;5.78;;;4.15;;
45316;SDS011;31053;55.870;37.592;2022-08-14T14:57:16;9.18;;;4.22;;
45316;SDS011;31053;55.870;37.592;2022-08-14T15:00:23;4.47;;;2.67;;
45316;SDS011;31053;55.870;37.592;2022-08-14T15:03:27;11.65;;;5.07;;
45316;SDS011;31053;55.870;37.592;2022-08-14T15:06:32;7.72;;;5.70;;
45316;SDS011;31053;55.870;37.592;2022-08-14T15:09:41;14.90;;;3.85;;
45316;SDS011;31053;55.870;37.592;2022-08-14T15:12:46;6.05;;;2.75;;
45316;SDS011;31053;55.870;37.592;2022-08-14T15:15:51;7.55;;;3.00;;
45316;SDS011;31053;55.870;37.592;2022-08-14T15:18:58;6.07;;;2.00;;
45316;SDS011;31053;55.870;37.592;2022-08-14T15:22:02;4.15;;;2.20;;
45316;SDS011;31053;55.870;37.592;2022-08-14T15:25:10;5.55;;;2.20;;
45316;SDS011;31053;55.870;37.592;2022-08-14T15:28:20;6.78;;;2.42;;
45316;SDS011;31053;55.870;37.592;2022-08-14T15:31:28;8.02;;;4.35;;
45316;SDS011;31053;55.870;37.592;2022-08-14T15:34:33;6.03;;;3.15;;
45316;SDS011;31053;55.870;37.592;2022-08-14T15:40:44;5.43;;;3.38;;
45316;SDS011;31053;55.870;37.592;2022-08-14T15:43:49;8.18;;;3.15;;
45316;SDS011;31053;55.870;37.592;2022-08-14T15:46:54;3.90;;;2.47;;
45316;SDS011;31053;55.870;37.592;2022-08-14T15:50:00;3.47;;;2.60;;
45316;SDS011;31053;55.870;37.592;2022-08-14T15:53:08;8.65;;;3.22;;
45316;SDS011;31053;55.870;37.592;2022-08-14T15:56:12;4.18;;;2.05;;
45316;SDS011;31053;55.870;37.592;2022-08-14T15:59:18;4.15;;;2.90;;
45316;SDS011;31053;55.870;37.592;2022-08-14T16:02:23;9.15;;;2.60;;
45316;SDS011;31053;55.870;37.592;2022-08-14T16:05:28;12.88;;;8.05;;
45316;SDS011;31053;55.870;37.592;2022-08-14T16:08:33;4.90;;;3.60;;
45316;SDS011;31053;55.870;37.592;2022-08-14T16:11:38;4.35;;;3.67;;
45316;SDS011;31053;55.870;37.592;2022-08-14T16:14:43;4.78;;;2.40;;
45316;SDS011;31053;55.870;37.592;2022-08-14T16:17:48;8.20;;;2.17;;
45316;SDS011;31053;55.870;37.592;2022-08-14T16:20:52;15.73;;;4.82;;
45316;SDS011;31053;55.870;37.592;2022-08-14T16:24:02;7.85;;;2.40;;
45316;SDS011;31053;55.870;37.592;2022-08-14T16:27:07;12.23;;;3.03;;
45316;SDS011;31053;55.870;37.592;2022-08-14T16:30:15;8.45;;;3.17;;
45316;SDS011;31053;55.870;37.592;2022-08-14T16:33:20;13.00;;;7.75;;
45316;SDS011;31053;55.870;37.592;2022-08-14T16:36:24;7.72;;;4.30;;
45316;SDS011;31053;55.870;37.592;2022-08-14T16:39:32;10.30;;;4.65;;
45316;SDS011;31053;55.870;37.592;2022-08-14T16:42:40;16.33;;;10.90;;
45316;SDS011;31053;55.870;37.592;2022-08-14T16:45:45;8.15;;;4.78;;
45316;SDS011;31053;55.870;37.592;2022-08-14T16:48:52;9.20;;;3.22;;
45316;SDS011;31053;55.870;37.592;2022-08-14T16:51:58;9.25;;;3.63;;
45316;SDS011;31053;55.870;37.592;2022-08-14T16:55:07;15.70;;;4.57;;
45316;SDS011;31053;55.870;37.592;2022-08-14T16:59:21;11.75;;;4.57;;
45316;SDS011;31053;55.870;37.592;2022-08-14T17:02:31;16.02;;;5.30;;
45316;SDS011;31053;55.870;37.592;2022-08-14T17:05:42;16.58;;;3.97;;
45316;SDS011;31053;55.870;37.592;2022-08-14T17:08:47;9.60;;;5.35;;
45316;SDS011;31053;55.870;37.592;2022-08-14T17:11:52;13.00;;;4.70;;
45316;SDS011;31053;55.870;37.592;2022-08-14T17:15:10;9.57;;;5.25;;
45316;SDS011;31053;55.870;37.592;2022-08-14T17:18:32;11.88;;;5.30;;
45316;SDS011;31053;55.870;37.592;2022-08-14T17:21:39;17.52;;;6.72;;
45316;SDS011;31053;55.870;37.592;2022-08-14T17:24:44;9.18;;;6.22;;
45316;SDS011;31053;55.870;37.592;2022-08-14T17:28:07;8.65;;;4.88;;
45316;SDS011;31053;55.870;37.592;2022-08-14T17:31:29;12.52;;;4.82;;
45316;SDS011;31053;55.870;37.592;2022-08-14T17:37:57;11.38;;;4.80;;
45316;SDS011;31053;55.870;37.592;2022-08-14T17:41:19;6.53;;;5.20;;
45316;SDS011;31053;55.870;37.592;2022-08-14T17:47:34;8.98;;;5.13;;
45316;SDS011;31053;55.870;37.592;2022-08-14T17:50:48;12.10;;;5.40;;
45316;SDS011;31053;55.870;37.592;2022-08-14T17:53:53;10.32;;;5.30;;
45316;SDS011;31053;55.870;37.592;2022-08-14T17:57:14;11.82;;;6.50;;
45316;SDS011;31053;55.870;37.592;2022-08-14T18:00:24;12.85;;;6.53;;
45316;SDS011;31053;55.870;37.592;2022-08-14T18:03:29;13.55;;;6.95;;
45316;SDS011;31053;55.870;37.592;2022-08-14T18:06:34;9.48;;;4.80;;
45316;SDS011;31053;55.870;37.592;2022-08-14T18:09:41;8.15;;;4.72;;
45316;SDS011;31053;55.870;37.592;2022-08-14T18:12:47;10.52;;;4.55;;
45316;SDS011;31053;55.870;37.592;2022-08-14T18:15:52;14.77;;;5.28;;
45316;SDS011;31053;55.870;37.592;2022-08-14T18:19:02;10.50;;;4.55;;
45316;SDS011;31053;55.870;37.592;2022-08-14T18:22:08;11.07;;;6.27;;
45316;SDS011;31053;55.870;37.592;2022-08-14T18:25:20;10.82;;;6.70;;
45316;SDS011;31053;55.870;37.592;2022-08-14T18:28:28;6.40;;;4.82;;
45316;SDS011;31053;55.870;37.592;2022-08-14T18:31:47;10.80;;;6.32;;
45316;SDS011;31053;55.870;37.592;2022-08-14T18:35:02;10.18;;;4.88;;
45316;SDS011;31053;55.870;37.592;2022-08-14T18:38:19;19.67;;;6.72;;
45316;SDS011;31053;55.870;37.592;2022-08-14T18:41:28;6.40;;;4.57;;
45316;SDS011;31053;55.870;37.592;2022-08-14T18:48:07;8.05;;;4.30;;
45316;SDS011;31053;55.870;37.592;2022-08-14T18:51:14;7.53;;;5.07;;
45316;SDS011;31053;55.870;37.592;2022-08-14T18:54:33;6.90;;;4.93;;
45316;SDS011;31053;55.870;37.592;2022-08-14T19:00:58;10.88;;;5.47;;
45316;SDS011;31053;55.870;37.592;2022-08-14T19:04:03;9.82;;;5.07;;
45316;SDS011;31053;55.870;37.592;2022-08-14T19:07:15;19.17;;;6.93;;
45316;SDS011;31053;55.870;37.592;2022-08-14T19:10:27;8.65;;;5.60;;